sensor_id;sensor_type;location;lat;lon;timestamp;P1;durP1;ratioP1;P2;durP2;ratioP2
30505;SDS011;17292;51.600;4.994;2024-03-02T00:00:18;8.88;;;3.38;;
30505;SDS011;17292;51.600;4.994;2024-03-02T00:02:47;7.53;;;2.97;;
30505;SDS011;17292;51.600;4.994;2024-03-02T00:05:14;10.15;;;3.28;;
30505;SDS011;17292;51.600;4.994;2024-03-02T00:07:41;9.57;;;3.05;;
30505;SDS011;17292;51.600;4.994;2024-03-02T00:10:08;10.70;;;3.08;;
30505;SDS011;17292;51.600;4.994;2024-03-02T00:12:38;8.85;;;2.85;;
30505;SDS011;17292;51.600;4.994;2024-03-02T00:15:05;4.93;;;2.30;;
30505;SDS011;17292;51.600;4.994;2024-03-02T00:17:32;9.70;;;3.10;;
30505;SDS011;17292;51.600;4.994;2024-03-02T00:19:58;8.20;;;2.80;;
30505;SDS011;17292;51.600;4.994;2024-03-02T00:22:25;8.27;;;2.50;;
30505;SDS011;17292;51.600;4.994;2024-03-02T00:24:51;9.85;;;3.58;;
30505;SDS011;17292;51.600;4.994;2024-03-02T00:27:18;8.50;;;2.95;;
30505;SDS011;17292;51.600;4.994;2024-03-02T00:29:45;9.70;;;2.80;;
30505;SDS011;17292;51.600;4.994;2024-03-02T00:32:12;8.52;;;3.10;;
30505;SDS011;17292;51.600;4.994;2024-03-02T00:34:39;14.63;;;3.28;;
30505;SDS011;17292;51.600;4.994;2024-03-02T00:37:05;7.13;;;2.80;;
30505;SDS011;17292;51.600;4.994;2024-03-02T00:39:32;8.18;;;3.15;;
30505;SDS011;17292;51.600;4.994;2024-03-02T00:41:58;10.50;;;3.20;;
30505;SDS011;17292;51.600;4.994;2024-03-02T00:44:25;13.02;;;3.13;;
30505;SDS011;17292;51.600;4.994;2024-03-02T00:46:51;8.70;;;2.70;;
30505;SDS011;17292;51.600;4.994;2024-03-02T00:51:46;11.95;;;3.25;;
30505;SDS011;17292;51.600;4.994;2024-03-02T00:54:14;9.93;;;3.60;;
30505;SDS011;17292;51.600;4.994;2024-03-02T00:56:43;11.52;;;3.50;;
30505;SDS011;17292;51.600;4.994;2024-03-02T00:59:10;13.18;;;3.50;;
30505;SDS011;17292;51.600;4.994;2024-03-02T01:01:36;6.95;;;2.72;;
30505;SDS011;17292;51.600;4.994;2024-03-02T01:04:03;8.02;;;3.00;;
30505;SDS011;17292;51.600;4.994;2024-03-02T01:06:30;9.05;;;3.15;;
30505;SDS011;17292;51.600;4.994;2024-03-02T01:08:56;10.18;;;3.25;;
30505;SDS011;17292;51.600;4.994;2024-03-02T01:11:22;6.85;;;2.63;;
30505;SDS011;17292;51.600;4.994;2024-03-02T01:13:49;6.43;;;3.22;;
30505;SDS011;17292;51.600;4.994;2024-03-02T01:16:15;8.35;;;3.33;;
30505;SDS011;17292;51.600;4.994;2024-03-02T01:18:41;7.53;;;2.75;;
30505;SDS011;17292;51.600;4.994;2024-03-02T01:21:08;9.02;;;2.78;;
30505;SDS011;17292;51.600;4.994;2024-03-02T01:23:34;10.18;;;2.85;;
30505;SDS011;17292;51.600;4.994;2024-03-02T01:26:00;8.65;;;3.33;;
30505;SDS011;17292;51.600;4.994;2024-03-02T01:28:26;7.93;;;2.88;;
30505;SDS011;17292;51.600;4.994;2024-03-02T01:30:53;7.20;;;3.35;;
30505;SDS011;17292;51.600;4.994;2024-03-02T01:33:19;7.50;;;3.35;;
30505;SDS011;17292;51.600;4.994;2024-03-02T01:35:46;9.65;;;3.30;;
30505;SDS011;17292;51.600;4.994;2024-03-02T01:38:12;9.27;;;3.40;;
30505;SDS011;17292;51.600;4.994;2024-03-02T01:40:38;5.55;;;2.75;;
30505;SDS011;17292;51.600;4.994;2024-03-02T01:43:05;9.00;;;2.90;;
30505;SDS011;17292;51.600;4.994;2024-03-02T01:45:32;6.90;;;2.88;;
30505;SDS011;17292;51.600;4.994;2024-03-02T01:47:58;10.60;;;3.05;;
30505;SDS011;17292;51.600;4.994;2024-03-02T01:50:25;7.03;;;2.80;;
30505;SDS011;17292;51.600;4.994;2024-03-02T01:52:52;7.55;;;3.30;;
30505;SDS011;17292;51.600;4.994;2024-03-02T01:55:18;6.95;;;3.03;;
30505;SDS011;17292;51.600;4.994;2024-03-02T01:57:44;7.38;;;3.05;;
30505;SDS011;17292;51.600;4.994;2024-03-02T02:00:12;8.57;;;2.97;;
30505;SDS011;17292;51.600;4.994;2024-03-02T02:02:38;12.15;;;3.30;;
30505;SDS011;17292;51.600;4.994;2024-03-02T02:05:04;7.63;;;3.15;;
30505;SDS011;17292;51.600;4.994;2024-03-02T02:07:31;7.75;;;3.38;;
30505;SDS011;17292;51.600;4.994;2024-03-02T02:09:58;8.38;;;3.00;;
30505;SDS011;17292;51.600;4.994;2024-03-02T02:12:24;8.20;;;3.20;;
30505;SDS011;17292;51.600;4.994;2024-03-02T02:14:50;10.50;;;3.83;;
30505;SDS011;17292;51.600;4.994;2024-03-02T02:17:16;7.07;;;3.08;;
30505;SDS011;17292;51.600;4.994;2024-03-02T02:19:43;6.18;;;2.83;;
30505;SDS011;17292;51.600;4.994;2024-03-02T02:22:12;10.30;;;3.20;;
30505;SDS011;17292;51.600;4.994;2024-03-02T02:24:41;8.88;;;3.00;;
30505;SDS011;17292;51.600;4.994;2024-03-02T02:27:08;8.07;;;2.88;;
30505;SDS011;17292;51.600;4.994;2024-03-02T02:29:35;9.50;;;3.30;;
30505;SDS011;17292;51.600;4.994;2024-03-02T02:32:01;7.57;;;3.17;;
30505;SDS011;17292;51.600;4.994;2024-03-02T02:34:28;8.40;;;2.80;;
30505;SDS011;17292;51.600;4.994;2024-03-02T02:36:54;7.93;;;3.25;;
30505;SDS011;17292;51.600;4.994;2024-03-02T02:39:21;6.95;;;3.10;;
30505;SDS011;17292;51.600;4.994;2024-03-02T02:41:47;5.97;;;3.00;;
30505;SDS011;17292;51.600;4.994;2024-03-02T02:44:14;6.85;;;2.83;;
30505;SDS011;17292;51.600;4.994;2024-03-02T02:46:40;5.63;;;2.60;;
30505;SDS011;17292;51.600;4.994;2024-03-02T02:49:06;7.38;;;3.15;;
30505;SDS011;17292;51.600;4.994;2024-03-02T02:51:32;8.07;;;3.10;;
30505;SDS011;17292;51.600;4.994;2024-03-02T02:53:59;6.20;;;3.00;;
30505;SDS011;17292;51.600;4.994;2024-03-02T02:56:25;5.68;;;2.83;;
30505;SDS011;17292;51.600;4.994;2024-03-02T02:58:51;9.80;;;2.90;;
30505;SDS011;17292;51.600;4.994;2024-03-02T03:01:18;6.97;;;2.92;;
30505;SDS011;17292;51.600;4.994;2024-03-02T03:03:44;6.72;;;2.70;;
30505;SDS011;17292;51.600;4.994;2024-03-02T03:06:11;6.28;;;2.85;;
30505;SDS011;17292;51.600;4.994;2024-03-02T03:08:37;10.68;;;3.53;;
30505;SDS011;17292;51.600;4.994;2024-03-02T03:11:06;6.28;;;2.78;;
30505;SDS011;17292;51.600;4.994;2024-03-02T03:13:33;8.30;;;2.90;;
30505;SDS011;17292;51.600;4.994;2024-03-02T03:15:59;8.13;;;2.85;;
30505;SDS011;17292;51.600;4.994;2024-03-02T03:18:26;7.78;;;3.30;;
30505;SDS011;17292;51.600;4.994;2024-03-02T03:20:52;8.38;;;3.25;;
30505;SDS011;17292;51.600;4.994;2024-03-02T03:23:18;6.30;;;2.65;;
30505;SDS011;17292;51.600;4.994;2024-03-02T03:25:44;5.97;;;2.80;;
30505;SDS011;17292;51.600;4.994;2024-03-02T03:28:10;7.65;;;2.88;;
30505;SDS011;17292;51.600;4.994;2024-03-02T03:30:37;9.02;;;2.90;;
30505;SDS011;17292;51.600;4.994;2024-03-02T03:33:03;11.55;;;3.58;;
30505;SDS011;17292;51.600;4.994;2024-03-02T03:35:32;9.60;;;3.20;;
30505;SDS011;17292;51.600;4.994;2024-03-02T03:37:59;6.70;;;2.50;;
30505;SDS011;17292;51.600;4.994;2024-03-02T03:40:26;8.88;;;2.97;;
30505;SDS011;17292;51.600;4.994;2024-03-02T03:42:52;6.93;;;2.63;;
30505;SDS011;17292;51.600;4.994;2024-03-02T03:45:19;7.38;;;3.08;;
30505;SDS011;17292;51.600;4.994;2024-03-02T03:47:46;7.43;;;2.95;;
30505;SDS011;17292;51.600;4.994;2024-03-02T03:50:12;7.18;;;3.42;;
30505;SDS011;17292;51.600;4.994;2024-03-02T03:52:38;8.73;;;2.65;;
30505;SDS011;17292;51.600;4.994;2024-03-02T03:55:04;5.90;;;2.70;;
30505;SDS011;17292;51.600;4.994;2024-03-02T03:57:31;6.15;;;2.60;;
30505;SDS011;17292;51.600;4.994;2024-03-02T03:59:57;7.45;;;2.92;;
30505;SDS011;17292;51.600;4.994;2024-03-02T04:02:23;5.82;;;2.88;;
30505;SDS011;17292;51.600;4.994;2024-03-02T04:04:49;5.45;;;2.63;;
30505;SDS011;17292;51.600;4.994;2024-03-02T04:07:16;7.47;;;2.70;;
30505;SDS011;17292;51.600;4.994;2024-03-02T04:09:42;6.18;;;2.47;;
30505;SDS011;17292;51.600;4.994;2024-03-02T04:12:08;8.45;;;2.30;;
30505;SDS011;17292;51.600;4.994;2024-03-02T04:14:34;8.32;;;2.97;;
30505;SDS011;17292;51.600;4.994;2024-03-02T04:17:02;6.18;;;2.60;;
30505;SDS011;17292;51.600;4.994;2024-03-02T04:19:28;5.07;;;2.65;;
30505;SDS011;17292;51.600;4.994;2024-03-02T04:21:55;6.97;;;3.00;;
30505;SDS011;17292;51.600;4.994;2024-03-02T04:24:21;6.43;;;2.40;;
30505;SDS011;17292;51.600;4.994;2024-03-02T04:26:47;4.22;;;2.67;;
30505;SDS011;17292;51.600;4.994;2024-03-02T04:29:13;7.68;;;2.50;;
30505;SDS011;17292;51.600;4.994;2024-03-02T04:31:39;4.18;;;2.20;;
30505;SDS011;17292;51.600;4.994;2024-03-02T04:34:05;7.47;;;2.72;;
30505;SDS011;17292;51.600;4.994;2024-03-02T04:36:31;5.30;;;2.47;;
30505;SDS011;17292;51.600;4.994;2024-03-02T04:38:58;10.07;;;3.22;;
30505;SDS011;17292;51.600;4.994;2024-03-02T04:41:24;7.05;;;2.50;;
30505;SDS011;17292;51.600;4.994;2024-03-02T04:43:50;9.18;;;2.95;;
30505;SDS011;17292;51.600;4.994;2024-03-02T04:46:16;7.25;;;2.60;;
30505;SDS011;17292;51.600;4.994;2024-03-02T04:48:43;5.68;;;2.78;;
30505;SDS011;17292;51.600;4.994;2024-03-02T04:51:09;5.88;;;2.67;;
30505;SDS011;17292;51.600;4.994;2024-03-02T04:53:36;7.18;;;2.58;;
30505;SDS011;17292;51.600;4.994;2024-03-02T04:56:03;6.57;;;2.70;;
30505;SDS011;17292;51.600;4.994;2024-03-02T04:59:04;5.45;;;2.35;;
30505;SDS011;17292;51.600;4.994;2024-03-02T05:01:31;5.28;;;2.60;;
30505;SDS011;17292;51.600;4.994;2024-03-02T05:03:58;6.05;;;2.65;;
30505;SDS011;17292;51.600;4.994;2024-03-02T05:06:24;7.25;;;2.80;;
30505;SDS011;17292;51.600;4.994;2024-03-02T05:08:51;6.40;;;2.85;;
30505;SDS011;17292;51.600;4.994;2024-03-02T05:11:17;4.85;;;2.53;;
30505;SDS011;17292;51.600;4.994;2024-03-02T05:14:02;6.65;;;2.30;;
30505;SDS011;17292;51.600;4.994;2024-03-02T05:16:28;5.88;;;2.60;;
30505;SDS011;17292;51.600;4.994;2024-03-02T05:18:54;4.30;;;2.60;;
30505;SDS011;17292;51.600;4.994;2024-03-02T05:21:20;8.23;;;2.58;;
30505;SDS011;17292;51.600;4.994;2024-03-02T05:23:47;7.35;;;2.50;;
30505;SDS011;17292;51.600;4.994;2024-03-02T05:26:13;5.72;;;2.78;;
30505;SDS011;17292;51.600;4.994;2024-03-02T05:28:39;5.60;;;2.63;;
30505;SDS011;17292;51.600;4.994;2024-03-02T05:31:05;8.60;;;3.20;;
30505;SDS011;17292;51.600;4.994;2024-03-02T05:33:32;7.88;;;2.80;;
30505;SDS011;17292;51.600;4.994;2024-03-02T05:35:58;5.50;;;2.50;;
30505;SDS011;17292;51.600;4.994;2024-03-02T05:38:24;6.20;;;2.72;;
30505;SDS011;17292;51.600;4.994;2024-03-02T05:40:50;6.15;;;2.53;;
30505;SDS011;17292;51.600;4.994;2024-03-02T05:43:16;5.68;;;2.45;;
30505;SDS011;17292;51.600;4.994;2024-03-02T05:45:43;6.13;;;2.40;;
30505;SDS011;17292;51.600;4.994;2024-03-02T05:48:09;6.38;;;2.53;;
30505;SDS011;17292;51.600;4.994;2024-03-02T05:50:35;3.35;;;2.17;;
30505;SDS011;17292;51.600;4.994;2024-03-02T05:53:02;5.30;;;2.40;;
30505;SDS011;17292;51.600;4.994;2024-03-02T05:55:28;5.40;;;2.30;;
30505;SDS011;17292;51.600;4.994;2024-03-02T05:57:54;6.05;;;2.50;;
30505;SDS011;17292;51.600;4.994;2024-03-02T06:00:23;7.20;;;2.15;;
30505;SDS011;17292;51.600;4.994;2024-03-02T06:02:49;4.50;;;2.30;;
30505;SDS011;17292;51.600;4.994;2024-03-02T06:05:15;7.13;;;2.70;;
30505;SDS011;17292;51.600;4.994;2024-03-02T06:07:43;6.05;;;2.25;;
30505;SDS011;17292;51.600;4.994;2024-03-02T06:10:09;6.72;;;2.35;;
30505;SDS011;17292;51.600;4.994;2024-03-02T06:12:36;4.35;;;1.92;;
30505;SDS011;17292;51.600;4.994;2024-03-02T06:15:02;4.10;;;2.28;;
30505;SDS011;17292;51.600;4.994;2024-03-02T06:17:29;6.22;;;2.22;;
30505;SDS011;17292;51.600;4.994;2024-03-02T06:19:55;5.97;;;2.10;;
30505;SDS011;17292;51.600;4.994;2024-03-02T06:22:21;5.03;;;2.65;;
30505;SDS011;17292;51.600;4.994;2024-03-02T06:24:50;4.72;;;2.22;;
30505;SDS011;17292;51.600;4.994;2024-03-02T06:27:16;6.57;;;2.17;;
30505;SDS011;17292;51.600;4.994;2024-03-02T06:29:42;8.60;;;2.50;;
30505;SDS011;17292;51.600;4.994;2024-03-02T06:32:08;3.70;;;2.47;;
30505;SDS011;17292;51.600;4.994;2024-03-02T06:34:35;6.18;;;2.58;;
30505;SDS011;17292;51.600;4.994;2024-03-02T06:37:01;3.90;;;2.35;;
30505;SDS011;17292;51.600;4.994;2024-03-02T06:39:28;5.25;;;2.10;;
30505;SDS011;17292;51.600;4.994;2024-03-02T06:41:56;5.47;;;2.72;;
30505;SDS011;17292;51.600;4.994;2024-03-02T06:44:22;4.93;;;2.05;;
30505;SDS011;17292;51.600;4.994;2024-03-02T06:46:48;4.60;;;2.30;;
30505;SDS011;17292;51.600;4.994;2024-03-02T06:49:14;3.00;;;2.10;;
30505;SDS011;17292;51.600;4.994;2024-03-02T06:51:43;5.18;;;2.10;;
30505;SDS011;17292;51.600;4.994;2024-03-02T06:54:09;3.67;;;2.30;;
30505;SDS011;17292;51.600;4.994;2024-03-02T06:56:35;6.97;;;2.40;;
30505;SDS011;17292;51.600;4.994;2024-03-02T06:59:03;6.85;;;2.60;;
30505;SDS011;17292;51.600;4.994;2024-03-02T07:01:29;3.70;;;1.83;;
30505;SDS011;17292;51.600;4.994;2024-03-02T07:03:55;5.75;;;2.55;;
30505;SDS011;17292;51.600;4.994;2024-03-02T07:06:22;4.45;;;2.28;;
30505;SDS011;17292;51.600;4.994;2024-03-02T07:08:48;7.63;;;2.70;;
30505;SDS011;17292;51.600;4.994;2024-03-02T07:11:14;4.20;;;2.88;;
30505;SDS011;17292;51.600;4.994;2024-03-02T07:13:40;4.22;;;2.58;;
30505;SDS011;17292;51.600;4.994;2024-03-02T07:16:06;5.07;;;1.80;;
30505;SDS011;17292;51.600;4.994;2024-03-02T07:18:35;4.50;;;1.95;;
30505;SDS011;17292;51.600;4.994;2024-03-02T07:21:10;5.75;;;2.13;;
30505;SDS011;17292;51.600;4.994;2024-03-02T07:23:36;6.13;;;2.63;;
30505;SDS011;17292;51.600;4.994;2024-03-02T07:26:03;4.45;;;2.20;;
30505;SDS011;17292;51.600;4.994;2024-03-02T07:28:29;3.55;;;2.10;;
30505;SDS011;17292;51.600;4.994;2024-03-02T07:31:01;5.45;;;2.25;;
30505;SDS011;17292;51.600;4.994;2024-03-02T07:33:29;7.07;;;2.33;;
30505;SDS011;17292;51.600;4.994;2024-03-02T07:35:56;4.38;;;2.50;;
30505;SDS011;17292;51.600;4.994;2024-03-02T07:38:24;4.22;;;2.30;;
30505;SDS011;17292;51.600;4.994;2024-03-02T07:40:50;3.25;;;2.10;;
30505;SDS011;17292;51.600;4.994;2024-03-02T07:43:17;3.88;;;2.10;;
30505;SDS011;17292;51.600;4.994;2024-03-02T07:45:44;2.70;;;1.98;;
30505;SDS011;17292;51.600;4.994;2024-03-02T07:48:10;6.97;;;2.70;;
30505;SDS011;17292;51.600;4.994;2024-03-02T07:50:36;7.43;;;2.60;;
30505;SDS011;17292;51.600;4.994;2024-03-02T07:53:04;5.35;;;2.08;;
30505;SDS011;17292;51.600;4.994;2024-03-02T07:55:30;4.70;;;2.25;;
30505;SDS011;17292;51.600;4.994;2024-03-02T07:57:57;6.47;;;2.67;;
30505;SDS011;17292;51.600;4.994;2024-03-02T08:00:23;3.67;;;1.80;;
30505;SDS011;17292;51.600;4.994;2024-03-02T08:02:50;5.60;;;2.28;;
30505;SDS011;17292;51.600;4.994;2024-03-02T08:05:17;4.68;;;2.38;;
30505;SDS011;17292;51.600;4.994;2024-03-02T08:07:44;5.95;;;2.38;;
30505;SDS011;17292;51.600;4.994;2024-03-02T08:10:10;5.70;;;2.35;;
30505;SDS011;17292;51.600;4.994;2024-03-02T08:12:37;7.90;;;2.45;;
30505;SDS011;17292;51.600;4.994;2024-03-02T08:15:03;3.72;;;1.80;;
30505;SDS011;17292;51.600;4.994;2024-03-02T08:17:30;3.20;;;2.10;;
30505;SDS011;17292;51.600;4.994;2024-03-02T08:19:56;5.18;;;2.33;;
30505;SDS011;17292;51.600;4.994;2024-03-02T08:22:23;2.90;;;2.15;;
30505;SDS011;17292;51.600;4.994;2024-03-02T08:24:53;5.45;;;2.17;;
30505;SDS011;17292;51.600;4.994;2024-03-02T08:27:19;4.63;;;2.25;;
30505;SDS011;17292;51.600;4.994;2024-03-02T08:29:45;5.28;;;2.40;;
30505;SDS011;17292;51.600;4.994;2024-03-02T08:32:12;4.63;;;2.20;;
30505;SDS011;17292;51.600;4.994;2024-03-02T08:34:38;5.93;;;2.58;;
30505;SDS011;17292;51.600;4.994;2024-03-02T08:37:04;5.38;;;2.25;;
30505;SDS011;17292;51.600;4.994;2024-03-02T08:39:30;4.35;;;2.17;;
30505;SDS011;17292;51.600;4.994;2024-03-02T08:41:56;3.78;;;2.13;;
30505;SDS011;17292;51.600;4.994;2024-03-02T08:44:22;3.63;;;2.38;;
30505;SDS011;17292;51.600;4.994;2024-03-02T08:46:49;4.38;;;2.38;;
30505;SDS011;17292;51.600;4.994;2024-03-02T08:49:15;5.47;;;2.42;;
30505;SDS011;17292;51.600;4.994;2024-03-02T08:51:42;2.75;;;2.10;;
30505;SDS011;17292;51.600;4.994;2024-03-02T08:54:08;5.28;;;2.00;;
30505;SDS011;17292;51.600;4.994;2024-03-02T08:56:34;4.68;;;2.35;;
30505;SDS011;17292;51.600;4.994;2024-03-02T08:59:01;4.30;;;2.28;;
30505;SDS011;17292;51.600;4.994;2024-03-02T09:01:27;4.53;;;2.65;;
30505;SDS011;17292;51.600;4.994;2024-03-02T09:03:53;5.03;;;2.22;;
30505;SDS011;17292;51.600;4.994;2024-03-02T09:06:19;4.15;;;2.25;;
30505;SDS011;17292;51.600;4.994;2024-03-02T09:08:46;4.25;;;1.77;;
30505;SDS011;17292;51.600;4.994;2024-03-02T09:11:14;4.88;;;2.47;;
30505;SDS011;17292;51.600;4.994;2024-03-02T09:13:40;4.13;;;2.40;;
30505;SDS011;17292;51.600;4.994;2024-03-02T09:16:07;5.47;;;2.40;;
30505;SDS011;17292;51.600;4.994;2024-03-02T09:18:36;4.32;;;2.30;;
30505;SDS011;17292;51.600;4.994;2024-03-02T09:21:03;5.15;;;2.10;;
30505;SDS011;17292;51.600;4.994;2024-03-02T09:23:29;4.07;;;2.03;;
30505;SDS011;17292;51.600;4.994;2024-03-02T09:25:55;2.85;;;1.80;;
30505;SDS011;17292;51.600;4.994;2024-03-02T09:28:22;4.47;;;1.88;;
30505;SDS011;17292;51.600;4.994;2024-03-02T09:30:48;5.00;;;2.17;;
30505;SDS011;17292;51.600;4.994;2024-03-02T09:33:14;5.97;;;2.50;;
30505;SDS011;17292;51.600;4.994;2024-03-02T09:35:40;5.13;;;2.33;;
30505;SDS011;17292;51.600;4.994;2024-03-02T09:38:06;3.90;;;1.95;;
30505;SDS011;17292;51.600;4.994;2024-03-02T09:40:32;4.90;;;2.30;;
30505;SDS011;17292;51.600;4.994;2024-03-02T09:42:58;3.55;;;2.30;;
30505;SDS011;17292;51.600;4.994;2024-03-02T09:45:25;4.00;;;2.08;;
30505;SDS011;17292;51.600;4.994;2024-03-02T09:47:51;4.78;;;2.17;;
30505;SDS011;17292;51.600;4.994;2024-03-02T09:50:18;3.45;;;2.20;;
30505;SDS011;17292;51.600;4.994;2024-03-02T09:52:44;3.85;;;2.60;;
30505;SDS011;17292;51.600;4.994;2024-03-02T09:55:14;4.93;;;2.40;;
30505;SDS011;17292;51.600;4.994;2024-03-02T09:57:42;4.47;;;2.60;;
30505;SDS011;17292;51.600;4.994;2024-03-02T10:00:08;4.47;;;2.20;;
30505;SDS011;17292;51.600;4.994;2024-03-02T10:02:39;5.28;;;2.63;;
30505;SDS011;17292;51.600;4.994;2024-03-02T10:05:06;4.85;;;2.30;;
30505;SDS011;17292;51.600;4.994;2024-03-02T10:07:33;3.63;;;1.90;;
30505;SDS011;17292;51.600;4.994;2024-03-02T10:10:00;2.63;;;1.92;;
30505;SDS011;17292;51.600;4.994;2024-03-02T10:12:37;4.95;;;1.95;;
30505;SDS011;17292;51.600;4.994;2024-03-02T10:15:04;5.18;;;2.00;;
30505;SDS011;17292;51.600;4.994;2024-03-02T10:17:33;3.35;;;2.20;;
30505;SDS011;17292;51.600;4.994;2024-03-02T10:19:59;4.22;;;2.00;;
30505;SDS011;17292;51.600;4.994;2024-03-02T10:22:25;4.85;;;2.00;;
30505;SDS011;17292;51.600;4.994;2024-03-02T10:24:51;5.80;;;2.38;;
30505;SDS011;17292;51.600;4.994;2024-03-02T10:27:25;5.30;;;2.38;;
30505;SDS011;17292;51.600;4.994;2024-03-02T10:29:52;6.20;;;2.28;;
30505;SDS011;17292;51.600;4.994;2024-03-02T10:32:18;5.95;;;2.10;;
30505;SDS011;17292;51.600;4.994;2024-03-02T10:34:48;3.08;;;2.30;;
30505;SDS011;17292;51.600;4.994;2024-03-02T10:37:14;3.67;;;2.30;;
30505;SDS011;17292;51.600;4.994;2024-03-02T10:39:42;5.53;;;2.30;;
30505;SDS011;17292;51.600;4.994;2024-03-02T10:42:08;4.10;;;2.25;;
30505;SDS011;17292;51.600;4.994;2024-03-02T10:44:35;3.30;;;2.22;;
30505;SDS011;17292;51.600;4.994;2024-03-02T10:47:02;3.47;;;1.95;;
30505;SDS011;17292;51.600;4.994;2024-03-02T10:49:29;3.35;;;2.03;;
30505;SDS011;17292;51.600;4.994;2024-03-02T10:51:56;5.10;;;2.65;;
30505;SDS011;17292;51.600;4.994;2024-03-02T10:54:23;5.85;;;2.28;;
30505;SDS011;17292;51.600;4.994;2024-03-02T10:56:52;3.33;;;2.13;;
30505;SDS011;17292;51.600;4.994;2024-03-02T11:01:54;3.45;;;2.05;;
30505;SDS011;17292;51.600;4.994;2024-03-02T11:04:22;5.25;;;2.20;;
30505;SDS011;17292;51.600;4.994;2024-03-02T11:06:50;3.50;;;2.25;;
30505;SDS011;17292;51.600;4.994;2024-03-02T11:09:19;3.47;;;2.38;;
30505;SDS011;17292;51.600;4.994;2024-03-02T11:11:48;4.35;;;2.17;;
30505;SDS011;17292;51.600;4.994;2024-03-02T11:14:16;2.60;;;1.95;;
30505;SDS011;17292;51.600;4.994;2024-03-02T11:16:43;3.30;;;1.95;;
30505;SDS011;17292;51.600;4.994;2024-03-02T11:19:14;3.83;;;2.28;;
30505;SDS011;17292;51.600;4.994;2024-03-02T11:21:41;4.13;;;2.05;;
30505;SDS011;17292;51.600;4.994;2024-03-02T11:24:40;3.13;;;2.10;;
30505;SDS011;17292;51.600;4.994;2024-03-02T11:27:00;4.97;;;2.17;;
30505;SDS011;17292;51.600;4.994;2024-03-02T11:30:00;5.38;;;2.35;;
30505;SDS011;17292;51.600;4.994;2024-03-02T11:32:22;5.35;;;2.30;;
30505;SDS011;17292;51.600;4.994;2024-03-02T11:34:49;4.47;;;2.38;;
30505;SDS011;17292;51.600;4.994;2024-03-02T11:37:16;6.03;;;2.65;;
30505;SDS011;17292;51.600;4.994;2024-03-02T11:39:46;4.18;;;2.40;;
30505;SDS011;17292;51.600;4.994;2024-03-02T11:42:12;4.65;;;2.08;;
30505;SDS011;17292;51.600;4.994;2024-03-02T11:44:42;3.78;;;2.15;;
30505;SDS011;17292;51.600;4.994;2024-03-02T11:47:10;3.17;;;2.17;;
30505;SDS011;17292;51.600;4.994;2024-03-02T11:49:45;3.35;;;2.33;;
30505;SDS011;17292;51.600;4.994;2024-03-02T11:52:12;4.28;;;2.28;;
30505;SDS011;17292;51.600;4.994;2024-03-02T11:54:40;3.65;;;2.00;;
30505;SDS011;17292;51.600;4.994;2024-03-02T11:57:12;3.53;;;2.20;;
30505;SDS011;17292;51.600;4.994;2024-03-02T11:59:39;2.60;;;2.08;;
30505;SDS011;17292;51.600;4.994;2024-03-02T12:02:06;4.20;;;2.47;;
30505;SDS011;17292;51.600;4.994;2024-03-02T12:04:32;3.60;;;2.40;;
30505;SDS011;17292;51.600;4.994;2024-03-02T12:06:59;3.42;;;2.15;;
30505;SDS011;17292;51.600;4.994;2024-03-02T12:09:26;3.92;;;2.03;;
30505;SDS011;17292;51.600;4.994;2024-03-02T12:12:06;3.90;;;2.22;;
30505;SDS011;17292;51.600;4.994;2024-03-02T12:14:32;3.58;;;2.10;;
30505;SDS011;17292;51.600;4.994;2024-03-02T12:16:59;4.38;;;2.08;;
30505;SDS011;17292;51.600;4.994;2024-03-02T12:19:26;3.50;;;1.88;;
30505;SDS011;17292;51.600;4.994;2024-03-02T12:21:59;4.40;;;2.28;;
30505;SDS011;17292;51.600;4.994;2024-03-02T12:24:29;4.80;;;2.08;;
30505;SDS011;17292;51.600;4.994;2024-03-02T12:26:56;3.35;;;2.10;;
30505;SDS011;17292;51.600;4.994;2024-03-02T12:29:22;4.00;;;2.08;;
30505;SDS011;17292;51.600;4.994;2024-03-02T12:31:49;3.35;;;2.40;;
30505;SDS011;17292;51.600;4.994;2024-03-02T12:34:17;5.05;;;2.88;;
30505;SDS011;17292;51.600;4.994;2024-03-02T12:36:44;4.68;;;2.30;;
30505;SDS011;17292;51.600;4.994;2024-03-02T12:39:12;4.13;;;2.35;;
30505;SDS011;17292;51.600;4.994;2024-03-02T12:41:39;4.40;;;2.03;;
30505;SDS011;17292;51.600;4.994;2024-03-02T12:44:05;4.72;;;2.10;;
30505;SDS011;17292;51.600;4.994;2024-03-02T12:46:32;5.88;;;2.28;;
30505;SDS011;17292;51.600;4.994;2024-03-02T12:48:58;6.45;;;2.47;;
30505;SDS011;17292;51.600;4.994;2024-03-02T12:51:30;4.95;;;2.10;;
30505;SDS011;17292;51.600;4.994;2024-03-02T12:53:57;4.07;;;2.28;;
30505;SDS011;17292;51.600;4.994;2024-03-02T12:56:24;4.38;;;2.40;;
30505;SDS011;17292;51.600;4.994;2024-03-02T12:58:56;3.38;;;2.10;;
30505;SDS011;17292;51.600;4.994;2024-03-02T13:01:23;5.00;;;2.03;;
30505;SDS011;17292;51.600;4.994;2024-03-02T13:03:50;2.72;;;1.98;;
30505;SDS011;17292;51.600;4.994;2024-03-02T13:06:16;5.05;;;2.10;;
30505;SDS011;17292;51.600;4.994;2024-03-02T13:08:43;5.07;;;2.40;;
30505;SDS011;17292;51.600;4.994;2024-03-02T13:11:10;5.35;;;2.33;;
30505;SDS011;17292;51.600;4.994;2024-03-02T13:13:38;5.60;;;2.17;;
30505;SDS011;17292;51.600;4.994;2024-03-02T13:16:07;5.40;;;2.20;;
30505;SDS011;17292;51.600;4.994;2024-03-02T13:18:34;4.18;;;2.55;;
30505;SDS011;17292;51.600;4.994;2024-03-02T13:21:00;3.97;;;2.38;;
30505;SDS011;17292;51.600;4.994;2024-03-02T13:23:26;4.10;;;1.92;;
30505;SDS011;17292;51.600;4.994;2024-03-02T13:25:56;5.47;;;2.15;;
30505;SDS011;17292;51.600;4.994;2024-03-02T13:28:23;3.72;;;2.20;;
30505;SDS011;17292;51.600;4.994;2024-03-02T13:30:49;3.47;;;2.03;;
30505;SDS011;17292;51.600;4.994;2024-03-02T13:33:15;5.32;;;2.33;;
30505;SDS011;17292;51.600;4.994;2024-03-02T13:35:47;5.25;;;2.17;;
30505;SDS011;17292;51.600;4.994;2024-03-02T13:38:14;5.47;;;2.70;;
30505;SDS011;17292;51.600;4.994;2024-03-02T13:40:41;2.38;;;2.10;;
30505;SDS011;17292;51.600;4.994;2024-03-02T13:43:07;4.40;;;2.28;;
30505;SDS011;17292;51.600;4.994;2024-03-02T13:45:33;2.88;;;2.20;;
30505;SDS011;17292;51.600;4.994;2024-03-02T13:48:00;3.25;;;2.17;;
30505;SDS011;17292;51.600;4.994;2024-03-02T13:50:28;5.60;;;2.28;;
30505;SDS011;17292;51.600;4.994;2024-03-02T13:52:55;2.65;;;1.92;;
30505;SDS011;17292;51.600;4.994;2024-03-02T13:55:22;3.30;;;2.03;;
30505;SDS011;17292;51.600;4.994;2024-03-02T13:57:48;4.32;;;2.30;;
30505;SDS011;17292;51.600;4.994;2024-03-02T14:00:17;8.50;;;2.30;;
30505;SDS011;17292;51.600;4.994;2024-03-02T14:02:45;4.40;;;2.10;;
30505;SDS011;17292;51.600;4.994;2024-03-02T14:05:11;2.13;;;1.80;;
30505;SDS011;17292;51.600;4.994;2024-03-02T14:07:39;2.92;;;1.95;;
30505;SDS011;17292;51.600;4.994;2024-03-02T14:10:05;3.67;;;2.20;;
30505;SDS011;17292;51.600;4.994;2024-03-02T14:12:31;8.27;;;2.10;;
30505;SDS011;17292;51.600;4.994;2024-03-02T14:14:57;4.57;;;2.42;;
30505;SDS011;17292;51.600;4.994;2024-03-02T14:17:24;3.58;;;2.00;;
30505;SDS011;17292;51.600;4.994;2024-03-02T14:19:50;2.78;;;1.80;;
30505;SDS011;17292;51.600;4.994;2024-03-02T14:22:18;3.17;;;1.95;;
30505;SDS011;17292;51.600;4.994;2024-03-02T14:24:45;3.30;;;2.17;;
30505;SDS011;17292;51.600;4.994;2024-03-02T14:27:11;2.22;;;2.00;;
30505;SDS011;17292;51.600;4.994;2024-03-02T14:29:39;2.88;;;2.00;;
30505;SDS011;17292;51.600;4.994;2024-03-02T14:32:05;3.80;;;2.38;;
30505;SDS011;17292;51.600;4.994;2024-03-02T14:34:32;3.53;;;2.20;;
30505;SDS011;17292;51.600;4.994;2024-03-02T14:36:58;2.88;;;2.00;;
30505;SDS011;17292;51.600;4.994;2024-03-02T14:39:25;5.25;;;2.03;;
30505;SDS011;17292;51.600;4.994;2024-03-02T14:41:51;4.13;;;2.22;;
30505;SDS011;17292;51.600;4.994;2024-03-02T14:44:18;3.90;;;2.00;;
30505;SDS011;17292;51.600;4.994;2024-03-02T14:46:47;5.57;;;2.45;;
30505;SDS011;17292;51.600;4.994;2024-03-02T14:49:14;4.25;;;2.03;;
30505;SDS011;17292;51.600;4.994;2024-03-02T14:51:40;3.70;;;2.00;;